createdAt,value
2023-03-29T00:04:55.362Z,47.72
2023-03-29T00:09:56.809Z,139.88
2023-03-29T00:14:58.331Z,90.05
2023-03-29T00:19:59.803Z,58.60
2023-03-29T00:25:01.324Z,83.28
2023-03-29T00:30:02.959Z,89.00
2023-03-29T00:35:04.427Z,42.63
2023-03-29T00:40:05.954Z,33.10
2023-03-29T00:45:07.564Z,41.10
2023-03-29T00:50:09.218Z,41.72
2023-03-29T00:55:10.686Z,38.58
2023-03-29T01:00:12.216Z,33.72
2023-03-29T01:05:13.650Z,27.27
2023-03-29T01:10:15.184Z,31.23
2023-03-29T01:15:16.672Z,39.35
2023-03-29T01:20:18.114Z,30.25
2023-03-29T01:25:19.616Z,32.67
2023-03-29T01:30:21.055Z,39.67
2023-03-29T01:35:22.523Z,29.73
2023-03-29T01:40:23.952Z,28.38
2023-03-29T01:45:25.457Z,27.05
2023-03-29T01:50:26.913Z,24.02
2023-03-29T01:55:28.594Z,26.90
2023-03-29T02:00:30.070Z,29.63
2023-03-29T02:05:31.576Z,37.35
2023-03-29T02:10:33.095Z,28.30
2023-03-29T02:15:34.691Z,31.55
2023-03-29T02:20:36.134Z,37.22
2023-03-29T02:25:37.556Z,43.28
2023-03-29T02:30:39.000Z,37.90
2023-03-29T02:35:40.766Z,28.23
2023-03-29T02:40:42.214Z,34.40
2023-03-29T02:45:43.717Z,30.63
2023-03-29T02:50:45.250Z,32.67
2023-03-29T02:55:46.692Z,28.48
2023-03-29T03:00:48.130Z,30.08
2023-03-29T03:05:49.587Z,34.65
2023-03-29T03:10:51.104Z,29.33
2023-03-29T03:15:53.298Z,28.88
2023-03-29T03:20:57.687Z,33.97
2023-03-29T03:25:59.154Z,34.22
2023-03-29T03:31:01.007Z,36.25
2023-03-29T03:36:02.633Z,33.47
2023-03-29T03:41:04.372Z,43.95
2023-03-29T03:46:06.148Z,64.72
2023-03-29T03:51:07.629Z,24.40
2023-03-29T03:56:09.272Z,22.13
2023-03-29T04:01:10.774Z,29.75
2023-03-29T04:06:12.220Z,26.30
2023-03-29T04:11:13.637Z,31.40
2023-03-29T04:16:15.113Z,56.80
2023-03-29T04:21:17.871Z,39.40
2023-03-29T04:26:20.857Z,31.27
2023-03-29T04:31:22.375Z,32.67
2023-03-29T04:36:23.924Z,25.38
2023-03-29T04:41:25.427Z,26.00
2023-03-29T04:46:27.042Z,28.00
2023-03-29T04:51:28.523Z,23.42
2023-03-29T04:56:29.964Z,31.35
2023-03-29T05:01:31.497Z,43.70
2023-03-29T05:06:32.982Z,39.88
2023-03-29T05:11:34.431Z,31.38
2023-03-29T05:16:35.999Z,35.30
2023-03-29T05:21:37.488Z,48.03
2023-03-29T05:26:38.937Z,23.98
2023-03-29T05:31:40.399Z,46.15
2023-03-29T05:36:41.830Z,47.75
2023-03-29T05:41:43.300Z,45.42
2023-03-29T05:46:44.731Z,42.65
2023-03-29T05:51:46.164Z,34.72
2023-03-29T05:56:47.646Z,42.03
2023-03-29T06:01:49.118Z,35.70
2023-03-29T06:06:50.552Z,26.65
2023-03-29T06:11:52.013Z,23.88
2023-03-29T06:16:53.590Z,21.75
2023-03-29T06:21:55.100Z,30.63
2023-03-29T06:26:56.517Z,27.70
2023-03-29T06:31:57.968Z,29.13
2023-03-29T06:36:59.429Z,30.20
2023-03-29T06:42:05.244Z,27.20
2023-03-29T06:47:11.613Z,29.38
2023-03-29T06:52:13.078Z,23.20
2023-03-29T06:57:14.568Z,26.67
2023-03-29T07:02:16.178Z,22.25
2023-03-29T07:07:17.860Z,20.92
2023-03-29T07:12:19.290Z,17.67
2023-03-29T07:17:20.700Z,16.10
2023-03-29T07:22:22.120Z,17.52
2023-03-29T07:27:23.579Z,17.02
2023-03-29T07:32:25.082Z,16.95
2023-03-29T07:37:26.541Z,14.32
2023-03-29T07:42:27.994Z,13.35
2023-03-29T07:47:29.521Z,11.25
2023-03-29T07:52:31.018Z,10.32
2023-03-29T07:57:32.536Z,11.43
2023-03-29T08:02:33.983Z,11.55
2023-03-29T08:07:35.453Z,8.48
2023-03-29T08:12:36.893Z,3.78
2023-03-29T08:17:38.374Z,13.02
2023-03-29T08:22:39.842Z,7.50
2023-03-29T08:27:41.284Z,7.53
2023-03-29T08:32:42.773Z,11.93
2023-03-29T08:37:44.216Z,8.07
2023-03-29T08:42:45.683Z,8.65
2023-03-29T08:47:47.164Z,7.50
2023-03-29T08:52:48.664Z,8.57
2023-03-29T08:57:50.128Z,5.05
2023-03-29T09:02:51.737Z,10.35
2023-03-29T09:07:53.249Z,8.68
2023-03-29T09:12:54.727Z,8.85
2023-03-29T09:17:56.325Z,9.57
2023-03-29T09:22:57.805Z,7.88
2023-03-29T09:27:59.287Z,9.15
2023-03-29T09:33:00.881Z,9.65
2023-03-29T09:38:02.355Z,11.55
2023-03-29T09:43:03.817Z,9.02
2023-03-29T09:48:05.345Z,12.05
2023-03-29T09:53:06.866Z,7.53
2023-03-29T09:58:08.309Z,8.30
2023-03-29T10:03:10.848Z,8.25
2023-03-29T10:08:12.439Z,8.35
2023-03-29T10:13:13.904Z,10.18
2023-03-29T10:18:15.379Z,7.47
2023-03-29T10:23:16.792Z,9.20
2023-03-29T10:28:18.228Z,12.68
2023-03-29T10:33:19.671Z,6.05
2023-03-29T10:38:21.137Z,10.90
2023-03-29T10:43:22.568Z,6.53
2023-03-29T10:48:24.271Z,9.80
2023-03-29T10:53:25.728Z,9.13
2023-03-29T10:58:27.171Z,7.07
2023-03-29T11:03:28.706Z,11.27
2023-03-29T11:08:31.840Z,5.28
2023-03-29T11:13:33.573Z,9.32
2023-03-29T11:18:35.073Z,7.78
2023-03-29T11:23:36.532Z,6.85
2023-03-29T11:28:37.952Z,8.18
2023-03-29T11:33:39.378Z,11.10
2023-03-29T11:38:42.306Z,10.02
2023-03-29T11:43:45.432Z,8.23
2023-03-29T11:48:47.226Z,8.10
2023-03-29T11:53:48.738Z,5.95
2023-03-29T11:58:50.240Z,6.82
2023-03-29T12:03:51.772Z,3.72
2023-03-29T12:08:53.365Z,9.27
2023-03-29T12:13:54.880Z,8.05
2023-03-29T12:18:56.318Z,7.55
2023-03-29T12:23:57.780Z,8.13
2023-03-29T12:28:59.237Z,7.78
2023-03-29T12:34:00.692Z,7.78
2023-03-29T12:39:02.177Z,5.70
2023-03-29T12:44:03.683Z,9.70
2023-03-29T12:49:05.115Z,4.22
2023-03-29T12:54:06.585Z,9.43
2023-03-29T12:59:08.025Z,6.45
2023-03-29T13:04:09.479Z,7.63
2023-03-29T13:09:10.916Z,6.05
2023-03-29T13:14:12.345Z,6.38
2023-03-29T13:19:13.781Z,8.05
2023-03-29T13:24:15.233Z,8.82
2023-03-29T13:29:16.714Z,6.22
2023-03-29T13:34:18.214Z,5.05
2023-03-29T13:39:19.660Z,7.00
2023-03-29T13:44:21.089Z,7.18
2023-03-29T13:49:22.579Z,2.38
2023-03-29T13:54:24.094Z,7.03
2023-03-29T13:59:25.570Z,8.82
2023-03-29T14:04:27.009Z,7.25
2023-03-29T14:09:28.436Z,10.68
2023-03-29T14:14:29.891Z,4.80
2023-03-29T14:19:31.333Z,6.20
2023-03-29T14:24:32.762Z,6.30
2023-03-29T14:29:34.205Z,7.25
2023-03-29T14:34:35.667Z,10.50
2023-03-29T14:39:37.125Z,8.52
2023-03-29T14:44:38.572Z,7.38
2023-03-29T14:49:40.046Z,5.28
2023-03-29T14:54:41.483Z,5.22
2023-03-29T14:59:42.915Z,5.25
2023-03-29T15:04:44.391Z,5.18
2023-03-29T15:09:45.832Z,6.00
2023-03-29T15:14:47.310Z,6.07
2023-03-29T15:19:48.806Z,6.70
2023-03-29T15:24:50.508Z,7.05
2023-03-29T15:29:51.957Z,7.43
2023-03-29T15:34:53.424Z,5.18
2023-03-29T15:39:54.846Z,9.77
2023-03-29T15:44:56.396Z,9.02
2023-03-29T15:49:57.910Z,10.63
2023-03-29T15:54:59.336Z,7.88
2023-03-29T16:00:00.763Z,7.20
2023-03-29T16:05:02.268Z,7.00
2023-03-29T16:10:03.699Z,6.82
2023-03-29T16:15:05.156Z,5.72
2023-03-29T16:20:06.629Z,7.88
2023-03-29T16:25:08.118Z,6.43
2023-03-29T16:30:09.588Z,9.90
2023-03-29T16:35:11.028Z,10.85
2023-03-29T16:40:12.500Z,7.30
2023-03-29T16:45:13.928Z,8.30
2023-03-29T16:50:16.537Z,8.77
2023-03-29T16:55:18.028Z,9.80
2023-03-29T17:00:19.463Z,12.40
2023-03-29T17:05:20.886Z,7.32
2023-03-29T17:10:22.331Z,8.23
2023-03-29T17:15:23.806Z,9.20
2023-03-29T17:20:25.294Z,11.43
2023-03-29T17:25:26.721Z,11.00
2023-03-29T17:30:28.192Z,12.48
2023-03-29T17:35:29.678Z,8.77
2023-03-29T17:40:31.147Z,7.63
2023-03-29T17:45:32.640Z,7.20
2023-03-29T17:50:34.214Z,10.35
2023-03-29T17:55:35.699Z,10.15
2023-03-29T18:00:37.159Z,12.10
2023-03-29T18:05:39.895Z,9.52
2023-03-29T18:10:42.395Z,13.05
2023-03-29T18:15:43.873Z,12.18
2023-03-29T18:20:45.348Z,12.43
2023-03-29T18:25:47.032Z,9.57
2023-03-29T18:30:48.673Z,10.63
2023-03-29T18:35:50.171Z,11.35
2023-03-29T18:40:51.657Z,10.23
2023-03-29T18:45:53.135Z,10.93
2023-03-29T18:50:54.581Z,9.65
2023-03-29T18:55:56.013Z,13.35
2023-03-29T19:00:57.475Z,12.88
2023-03-29T19:05:58.951Z,11.45
2023-03-29T19:11:02.477Z,13.80
2023-03-29T19:16:04.265Z,13.50
2023-03-29T19:21:05.992Z,15.00
2023-03-29T19:26:07.535Z,13.75
2023-03-29T19:31:09.048Z,11.02
2023-03-29T19:36:10.556Z,12.73
2023-03-29T19:41:12.004Z,12.13
2023-03-29T19:46:13.525Z,14.15
2023-03-29T19:51:15.025Z,10.75
2023-03-29T19:56:16.497Z,13.00
2023-03-29T20:01:18.124Z,12.07
2023-03-29T20:06:19.640Z,12.43
2023-03-29T20:11:21.090Z,12.82
2023-03-29T20:16:22.611Z,16.05
2023-03-29T20:21:24.080Z,15.43
2023-03-29T20:26:25.566Z,18.25
2023-03-29T20:31:27.074Z,13.85
2023-03-29T20:36:28.593Z,16.40
2023-03-29T20:41:30.150Z,14.68
2023-03-29T20:46:31.625Z,15.55
2023-03-29T20:51:33.291Z,19.10
2023-03-29T20:56:34.756Z,15.18
2023-03-29T21:01:36.208Z,12.80
2023-03-29T21:06:37.644Z,16.42
2023-03-29T21:11:39.074Z,14.98
2023-03-29T21:16:40.499Z,15.23
2023-03-29T21:21:41.947Z,14.23
2023-03-29T21:26:43.426Z,16.67
2023-03-29T21:31:44.962Z,17.73
2023-03-29T21:36:46.472Z,15.65
2023-03-29T21:41:47.896Z,18.92
2023-03-29T21:46:49.376Z,17.40
2023-03-29T21:51:50.837Z,14.45
2023-03-29T21:56:52.352Z,14.07
2023-03-29T22:01:53.821Z,14.68
2023-03-29T22:06:55.285Z,15.23
2023-03-29T22:11:56.743Z,12.93
2023-03-29T22:16:58.307Z,12.82
2023-03-29T22:21:59.834Z,13.75
2023-03-29T22:27:01.273Z,14.48
2023-03-29T22:32:02.737Z,13.57
2023-03-29T22:37:04.189Z,12.15
2023-03-29T22:42:05.629Z,11.82
2023-03-29T22:47:07.087Z,14.70
2023-03-29T22:52:08.516Z,12.25
2023-03-29T22:57:09.954Z,12.45
2023-03-29T23:02:11.443Z,15.55
2023-03-29T23:07:12.878Z,13.93
2023-03-29T23:12:14.325Z,11.30
2023-03-29T23:17:15.763Z,10.77
2023-03-29T23:22:17.232Z,10.48
2023-03-29T23:27:18.664Z,11.68
2023-03-29T23:32:20.114Z,10.70
2023-03-29T23:37:21.535Z,14.57
2023-03-29T23:42:22.964Z,13.85
2023-03-29T23:47:24.427Z,15.13
2023-03-29T23:52:25.882Z,21.85
2023-03-29T23:57:27.394Z,16.10
